Sicamous, Canada
Current Conditions -  °F | °C
As of 10:08 AM on Sunday 23 Nov 2014 (Local Time) from CYRV Reporting Station
Light Rain Light Rain  
Wind Chill: 25°   Ceiling: 2200
Heat Index: 36°   Visibility: 9mi
Dew Point: 34°   Wind: 20mph
Humidity: 93%   Direction: 170°S
Pressure: 29.91"   Gusts: 26mph
Location:  50.83°N, 119°W
Report Text: CYRV 231808Z AUTO 17017G23KT 9SM -RA FEW008 OVC022 02/01 A2991 RMK SLP144
Loading
Personal Weather Stations






























Interactive Weather Map New forecast layout! Learn more

10-Day Weather Forecast

Advertisements
Track Severe Weather on mobile